createdAt,value
2023-02-27T00:02:01.570Z,0.28
2023-02-27T00:04:28.518Z,0.20
2023-02-27T00:06:55.410Z,0.18
2023-02-27T00:09:22.210Z,0.14
2023-02-27T00:11:49.082Z,0.13
2023-02-27T00:14:18.904Z,0.03
2023-02-27T00:16:45.781Z,0.03
2023-02-27T00:19:13.694Z,0.09
2023-02-27T00:21:44.398Z,0.10
2023-02-27T00:24:11.686Z,0.14
2023-02-27T00:26:38.461Z,0.14
2023-02-27T00:29:06.461Z,0.07
2023-02-27T00:31:33.504Z,0.03
2023-02-27T00:34:00.604Z,0.07
2023-02-27T00:36:29.507Z,0.07
2023-02-27T00:38:56.353Z,0.09
2023-02-27T00:41:27.710Z,0.13
2023-02-27T00:43:54.920Z,0.19
2023-02-27T00:46:23.056Z,0.22
2023-02-27T00:48:49.836Z,0.23
2023-02-27T00:51:16.726Z,0.14
2023-02-27T00:53:43.554Z,-0.08
2023-02-27T00:56:10.595Z,-0.14
2023-02-27T00:58:37.631Z,-0.09
2023-02-27T01:01:04.665Z,-0.02
2023-02-27T01:03:31.483Z,-0.01
2023-02-27T01:05:58.984Z,0.05
2023-02-27T01:08:25.938Z,-0.01
2023-02-27T01:10:57.191Z,-0.07
2023-02-27T01:13:24.247Z,-0.10
2023-02-27T01:15:51.685Z,-0.17
2023-02-27T01:18:18.663Z,-0.17
2023-02-27T01:20:45.441Z,-0.13
2023-02-27T01:23:12.661Z,-0.08
2023-02-27T01:25:39.893Z,-0.09
2023-02-27T01:28:06.634Z,-0.11
2023-02-27T01:30:33.758Z,-0.13
2023-02-27T01:33:00.864Z,-0.15
2023-02-27T01:35:27.601Z,-0.12
2023-02-27T01:37:54.426Z,-0.19
2023-02-27T01:40:21.357Z,-0.20
2023-02-27T01:42:48.392Z,-0.24
2023-02-27T01:45:31.130Z,-0.30
2023-02-27T01:48:13.451Z,-0.24
2023-02-27T01:51:08.994Z,-0.25
2023-02-27T01:53:43.019Z,-0.31
2023-02-27T01:56:23.338Z,-0.35
2023-02-27T01:58:55.503Z,-0.38
2023-02-27T02:01:23.500Z,-0.38
2023-02-27T02:04:24.894Z,-0.39
2023-02-27T02:07:00.720Z,-0.48
2023-02-27T02:09:30.198Z,-0.40
2023-02-27T02:11:59.297Z,-0.35
2023-02-27T02:14:26.087Z,-0.30
2023-02-27T02:17:48.015Z,-0.37
2023-02-27T02:21:06.835Z,-0.36
2023-02-27T02:24:17.570Z,-0.42
2023-02-27T02:27:27.749Z,-0.38
2023-02-27T02:30:13.282Z,-0.38
2023-02-27T02:33:02.038Z,-0.35
2023-02-27T02:35:56.551Z,-0.34
2023-02-27T02:38:56.307Z,-0.42
2023-02-27T02:41:32.215Z,-0.46
2023-02-27T02:44:26.304Z,-0.51
2023-02-27T02:47:16.904Z,-0.47
2023-02-27T02:50:05.917Z,-0.43
2023-02-27T02:52:54.039Z,-0.44
2023-02-27T02:56:14.344Z,-0.50
2023-02-27T02:59:06.106Z,-0.60
2023-02-27T03:01:51.609Z,-0.55
2023-02-27T03:04:43.833Z,-0.56
2023-02-27T03:07:37.206Z,-0.56
2023-02-27T03:10:16.115Z,-0.54
2023-02-27T03:12:55.691Z,-0.60
2023-02-27T03:15:30.711Z,-0.64
2023-02-27T03:18:43.325Z,-0.57
2023-02-27T03:21:26.312Z,-0.67
2023-02-27T03:24:00.153Z,-0.71
2023-02-27T03:26:36.433Z,-0.59
2023-02-27T03:29:22.606Z,-0.60
2023-02-27T03:32:04.266Z,-0.66
2023-02-27T03:34:37.303Z,-0.71
2023-02-27T03:37:22.673Z,-0.79
2023-02-27T03:40:07.729Z,-0.79
2023-02-27T03:43:19.295Z,-0.78
2023-02-27T03:45:58.317Z,-0.76
2023-02-27T03:48:25.710Z,-0.74
2023-02-27T03:50:52.749Z,-0.81
2023-02-27T03:53:49.328Z,-0.72
2023-02-27T03:56:24.182Z,-0.67
2023-02-27T03:58:52.579Z,-0.73
2023-02-27T04:01:20.099Z,-0.81
2023-02-27T04:04:00.544Z,-0.80
2023-02-27T04:06:46.634Z,-0.77
2023-02-27T04:09:30.262Z,-0.79
2023-02-27T04:12:45.552Z,-0.83
2023-02-27T04:16:01.677Z,-0.91
2023-02-27T04:19:08.289Z,-0.96
2023-02-27T04:21:41.766Z,-0.97
2023-02-27T04:24:47.472Z,-0.96
2023-02-27T04:27:36.332Z,-0.93
2023-02-27T04:30:37.579Z,-0.88
2023-02-27T04:33:24.580Z,-0.91
2023-02-27T04:36:07.264Z,-0.95
2023-02-27T04:38:58.848Z,-0.97
2023-02-27T04:41:43.524Z,-1.01
2023-02-27T04:44:13.212Z,-0.96
2023-02-27T04:46:44.325Z,-0.97
2023-02-27T04:49:35.148Z,-1.04
2023-02-27T04:52:31.732Z,-0.97
2023-02-27T04:55:25.199Z,-0.91
2023-02-27T04:58:10.282Z,-0.96
2023-02-27T05:00:41.249Z,-1.06
2023-02-27T05:03:25.360Z,-1.07
2023-02-27T05:05:58.783Z,-0.99
2023-02-27T05:08:43.175Z,-0.92
2023-02-27T05:11:34.909Z,-0.94
2023-02-27T05:14:21.398Z,-0.98
2023-02-27T05:17:09.256Z,-0.99
2023-02-27T05:19:41.317Z,-1.00
2023-02-27T05:22:36.372Z,-1.01
2023-02-27T05:25:41.323Z,-1.10
2023-02-27T05:28:21.257Z,-1.07
2023-02-27T05:31:41.419Z,-1.05
2023-02-27T05:34:18.337Z,-1.07
2023-02-27T05:37:02.045Z,-1.11
2023-02-27T05:39:34.458Z,-1.11
2023-02-27T05:42:14.357Z,-1.12
2023-02-27T05:44:49.667Z,-1.11
2023-02-27T05:47:22.636Z,-1.10
2023-02-27T05:50:02.783Z,-1.10
2023-02-27T05:52:32.257Z,-1.17
2023-02-27T05:55:13.886Z,-1.22
2023-02-27T05:57:51.891Z,-1.19
2023-02-27T06:00:29.917Z,-1.14
2023-02-27T06:02:56.769Z,-1.10
2023-02-27T06:05:26.437Z,-1.13
2023-02-27T06:07:53.200Z,-1.16
2023-02-27T06:10:22.198Z,-1.14
2023-02-27T06:12:49.094Z,-1.21
2023-02-27T06:15:17.469Z,-1.20
2023-02-27T06:17:47.357Z,-1.17
2023-02-27T06:20:14.286Z,-1.17
2023-02-27T06:22:41.601Z,-1.18
2023-02-27T06:25:10.457Z,-1.20
2023-02-27T06:27:37.580Z,-1.27
2023-02-27T06:30:07.404Z,-1.26
2023-02-27T06:32:34.603Z,-1.24
2023-02-27T06:35:01.644Z,-1.27
2023-02-27T06:37:28.533Z,-1.28
2023-02-27T06:39:55.271Z,-1.26
2023-02-27T06:42:22.669Z,-1.23
2023-02-27T06:44:49.727Z,-1.21
2023-02-27T06:47:16.799Z,-1.18
2023-02-27T06:49:44.049Z,-1.19
2023-02-27T06:52:10.791Z,-1.19
2023-02-27T06:54:37.960Z,-1.22
2023-02-27T06:57:05.120Z,-1.19
2023-02-27T06:59:33.251Z,-1.21
2023-02-27T07:02:00.597Z,-1.18
2023-02-27T07:04:27.441Z,-1.15
2023-02-27T07:07:34.247Z,-1.12
2023-02-27T07:09:43.070Z,-1.18
2023-02-27T07:12:10.190Z,-1.17
2023-02-27T07:14:37.359Z,-1.12
2023-02-27T07:17:04.806Z,-1.05
2023-02-27T07:19:34.176Z,-1.02
2023-02-27T07:22:01.045Z,-0.93
2023-02-27T07:24:28.061Z,-0.89
2023-02-27T07:26:54.965Z,-0.85
2023-02-27T07:29:22.046Z,-0.80
2023-02-27T07:31:49.010Z,-0.75
2023-02-27T07:34:16.220Z,-0.71
2023-02-27T07:36:45.119Z,-0.67
2023-02-27T07:39:14.679Z,-0.61
2023-02-27T07:41:41.434Z,-0.56
2023-02-27T07:44:10.818Z,-0.53
2023-02-27T07:46:37.690Z,-0.48
2023-02-27T07:49:04.479Z,-0.53
2023-02-27T07:51:31.354Z,-0.42
2023-02-27T07:53:58.728Z,-0.27
2023-02-27T07:56:28.990Z,-0.20
2023-02-27T07:58:56.625Z,-0.18
2023-02-27T08:01:23.438Z,-0.16
2023-02-27T08:03:50.428Z,0.00
2023-02-27T08:06:17.294Z,0.11
2023-02-27T08:08:44.388Z,0.21
2023-02-27T08:11:11.486Z,0.32
2023-02-27T08:16:25.594Z,0.66
2023-02-27T08:18:52.604Z,0.87
2023-02-27T08:21:19.480Z,0.99
2023-02-27T08:23:46.315Z,1.14
2023-02-27T08:26:16.101Z,1.41
2023-02-27T08:28:43.347Z,1.57
2023-02-27T08:31:10.542Z,1.69
2023-02-27T08:33:37.345Z,2.00
2023-02-27T08:36:04.916Z,1.95
2023-02-27T08:38:32.001Z,2.08
2023-02-27T08:40:58.874Z,2.26
2023-02-27T08:43:25.704Z,2.41
2023-02-27T08:45:56.360Z,2.53
2023-02-27T08:48:24.802Z,2.84
2023-02-27T08:50:52.237Z,2.93
2023-02-27T08:53:22.173Z,3.09
2023-02-27T08:55:53.258Z,3.38
2023-02-27T08:58:20.212Z,3.48
2023-02-27T09:00:47.416Z,3.79
2023-02-27T09:03:16.639Z,3.89
2023-02-27T09:05:44.084Z,3.74
2023-02-27T09:08:12.996Z,3.71
2023-02-27T09:10:39.769Z,3.78
2023-02-27T09:13:06.548Z,4.16
2023-02-27T09:15:35.966Z,4.38
2023-02-27T09:18:03.919Z,4.42
2023-02-27T09:20:31.728Z,4.56
2023-02-27T09:22:59.794Z,4.50
2023-02-27T09:25:27.579Z,4.67
2023-02-27T09:27:55.355Z,4.82
2023-02-27T09:30:23.351Z,5.05
2023-02-27T09:32:50.785Z,5.12
2023-02-27T09:35:20.556Z,5.03
2023-02-27T09:37:49.442Z,5.18
2023-02-27T09:40:31.506Z,5.42
2023-02-27T09:43:09.570Z,5.53
2023-02-27T09:45:39.507Z,5.47
2023-02-27T09:48:30.398Z,5.37
2023-02-27T09:50:59.180Z,5.45
2023-02-27T09:53:49.681Z,5.66
2023-02-27T09:56:28.450Z,5.91
2023-02-27T09:59:36.875Z,5.75
2023-02-27T10:02:12.392Z,5.77
2023-02-27T10:05:11.718Z,5.96
2023-02-27T10:08:04.610Z,6.09
2023-02-27T10:11:00.812Z,6.33
2023-02-27T10:13:53.518Z,6.47
2023-02-27T10:16:24.392Z,6.61
2023-02-27T10:19:07.411Z,6.08
2023-02-27T10:21:43.843Z,5.87
2023-02-27T10:24:38.023Z,6.01
2023-02-27T10:27:15.870Z,6.33
2023-02-27T10:29:43.121Z,6.56
2023-02-27T10:32:29.859Z,6.64
2023-02-27T10:35:27.139Z,6.70
2023-02-27T10:38:04.268Z,6.87
2023-02-27T10:40:35.332Z,7.05
2023-02-27T10:43:06.136Z,6.83
2023-02-27T10:45:34.842Z,6.27
2023-02-27T10:48:04.575Z,5.99
2023-02-27T10:50:39.184Z,6.07
2023-02-27T10:53:28.098Z,6.22
2023-02-27T10:56:04.316Z,6.29
2023-02-27T10:58:35.545Z,6.86
2023-02-27T11:01:06.962Z,6.85
2023-02-27T11:03:41.377Z,7.02
2023-02-27T11:06:26.467Z,6.83
2023-02-27T11:09:13.479Z,6.81
2023-02-27T11:11:40.342Z,7.21
2023-02-27T11:14:19.514Z,7.51
2023-02-27T11:16:52.834Z,7.36
2023-02-27T11:19:37.253Z,7.78
2023-02-27T11:22:20.309Z,8.26
2023-02-27T11:24:48.138Z,7.78
2023-02-27T11:27:28.793Z,7.93
2023-02-27T11:30:28.359Z,7.89
2023-02-27T11:33:00.740Z,7.86
2023-02-27T11:35:38.647Z,8.27
2023-02-27T11:38:18.204Z,9.00
2023-02-27T11:41:01.776Z,9.75
2023-02-27T11:43:39.971Z,9.92
2023-02-27T11:46:46.804Z,10.08
2023-02-27T11:49:35.914Z,10.86
2023-02-27T11:52:20.467Z,11.01
2023-02-27T11:54:57.141Z,11.16
2023-02-27T11:57:41.394Z,11.06
2023-02-27T12:00:22.685Z,11.08
2023-02-27T12:03:23.616Z,10.63
2023-02-27T12:06:04.844Z,9.26
2023-02-27T12:08:45.912Z,8.50
2023-02-27T12:11:44.144Z,8.24
2023-02-27T12:14:27.679Z,8.89
2023-02-27T12:17:07.067Z,8.63
2023-02-27T12:20:13.599Z,8.66
2023-02-27T12:22:46.955Z,9.38
2023-02-27T12:25:54.040Z,9.23
2023-02-27T12:28:34.929Z,9.46
2023-02-27T12:31:23.461Z,10.18
2023-02-27T12:34:03.880Z,9.70
2023-02-27T12:36:31.402Z,8.29
2023-02-27T12:39:01.334Z,7.88
2023-02-27T12:42:09.391Z,8.17
2023-02-27T12:45:27.711Z,8.69
2023-02-27T12:48:45.517Z,9.93
2023-02-27T12:51:58.393Z,10.06
2023-02-27T12:54:53.631Z,9.17
2023-02-27T12:58:03.752Z,8.60
2023-02-27T13:00:59.907Z,7.88
2023-02-27T13:04:00.709Z,7.97
2023-02-27T13:06:51.677Z,9.15
2023-02-27T13:09:34.698Z,10.67
2023-02-27T13:12:12.277Z,10.46
2023-02-27T13:15:23.657Z,9.31
2023-02-27T13:18:41.340Z,8.23
2023-02-27T13:21:48.358Z,8.20
2023-02-27T13:24:31.624Z,9.35
2023-02-27T13:27:17.989Z,9.80
2023-02-27T13:30:01.491Z,8.90
2023-02-27T13:32:44.033Z,7.98
2023-02-27T13:35:36.243Z,7.11
2023-02-27T13:38:41.702Z,6.78
2023-02-27T13:41:23.829Z,6.68
2023-02-27T13:43:55.992Z,6.58
2023-02-27T13:46:33.756Z,6.44
2023-02-27T13:49:20.022Z,6.31
2023-02-27T13:51:56.752Z,6.26
2023-02-27T13:54:29.651Z,6.26
2023-02-27T13:56:59.379Z,6.59
2023-02-27T13:59:41.813Z,6.70
2023-02-27T14:02:11.646Z,8.08
2023-02-27T14:04:53.958Z,8.62
2023-02-27T14:07:26.033Z,8.11
2023-02-27T14:10:12.801Z,7.63
2023-02-27T14:12:45.887Z,7.10
2023-02-27T14:15:22.182Z,6.74
2023-02-27T14:18:12.368Z,6.50
2023-02-27T14:20:42.551Z,6.42
2023-02-27T14:23:26.696Z,6.39
2023-02-27T14:26:05.300Z,6.47
2023-02-27T14:28:55.524Z,6.21
2023-02-27T14:31:36.674Z,6.39
2023-02-27T14:34:06.224Z,6.32
2023-02-27T14:36:42.614Z,6.21
2023-02-27T14:39:24.008Z,6.12
2023-02-27T14:42:09.161Z,6.02
2023-02-27T14:44:46.899Z,5.83
2023-02-27T14:47:33.557Z,5.71
2023-02-27T14:50:04.044Z,5.69
2023-02-27T14:52:41.778Z,5.67
2023-02-27T14:55:27.682Z,5.61
2023-02-27T14:58:31.517Z,5.63
2023-02-27T15:01:09.878Z,5.51
2023-02-27T15:03:50.242Z,5.50
2023-02-27T15:06:30.098Z,5.49
2023-02-27T15:08:57.226Z,5.49
2023-02-27T15:11:28.012Z,5.47
2023-02-27T15:14:03.465Z,5.28
2023-02-27T15:16:42.935Z,5.10
2023-02-27T15:19:19.178Z,4.91
2023-02-27T15:21:57.144Z,5.03
2023-02-27T15:24:43.854Z,5.11
2023-02-27T15:27:23.725Z,4.99
2023-02-27T15:29:58.651Z,5.03
2023-02-27T15:32:35.247Z,4.98
2023-02-27T15:35:13.550Z,4.97
2023-02-27T15:37:55.138Z,4.92
2023-02-27T15:40:33.254Z,4.86
2023-02-27T15:43:01.804Z,4.84
2023-02-27T15:45:35.982Z,4.92
2023-02-27T15:48:04.761Z,4.76
2023-02-27T15:50:37.316Z,4.69
2023-02-27T15:53:25.698Z,4.54
2023-02-27T15:55:57.950Z,4.59
2023-02-27T15:58:31.072Z,4.46
2023-02-27T16:01:07.677Z,4.48
2023-02-27T16:03:42.372Z,4.52
2023-02-27T16:06:34.082Z,4.50
2023-02-27T16:09:19.308Z,4.41
2023-02-27T16:11:46.494Z,4.38
2023-02-27T16:14:41.177Z,4.44
2023-02-27T16:17:30.611Z,4.37
2023-02-27T16:20:02.243Z,4.28
2023-02-27T16:22:30.517Z,4.29
2023-02-27T16:25:10.528Z,4.29
2023-02-27T16:27:39.420Z,4.20
2023-02-27T16:30:12.256Z,4.00
2023-02-27T16:32:42.331Z,4.00
2023-02-27T16:35:20.170Z,3.95
2023-02-27T16:37:49.127Z,4.03
2023-02-27T16:40:24.807Z,4.04
2023-02-27T16:42:52.911Z,4.00
2023-02-27T16:45:24.410Z,3.98
2023-02-27T16:47:57.240Z,3.97
2023-02-27T16:50:32.270Z,3.95
2023-02-27T16:53:00.077Z,3.92
2023-02-27T16:55:29.652Z,3.83
2023-02-27T16:57:56.782Z,3.80
2023-02-27T17:00:23.929Z,3.82
2023-02-27T17:02:51.339Z,3.79
2023-02-27T17:05:19.015Z,3.72
2023-02-27T17:07:46.559Z,3.74
2023-02-27T17:10:19.699Z,3.79
2023-02-27T17:12:47.972Z,3.75
2023-02-27T17:15:15.473Z,3.77
2023-02-27T17:17:42.889Z,3.82
2023-02-27T17:20:12.834Z,3.69
2023-02-27T17:22:43.763Z,3.62
2023-02-27T17:25:14.513Z,3.58
2023-02-27T17:27:44.687Z,3.71
2023-02-27T17:30:14.625Z,3.68
2023-02-27T17:32:41.493Z,3.72
2023-02-27T17:35:08.995Z,3.73
2023-02-27T17:37:37.331Z,3.68
2023-02-27T17:40:08.253Z,3.58
2023-02-27T17:42:39.872Z,3.59
2023-02-27T17:45:10.829Z,3.54
2023-02-27T17:47:40.786Z,3.51
2023-02-27T17:50:08.012Z,3.58
2023-02-27T17:52:37.967Z,3.57
2023-02-27T17:55:09.953Z,3.55
2023-02-27T17:57:42.118Z,3.48
2023-02-27T18:00:15.244Z,3.51
2023-02-27T18:02:45.244Z,3.56
2023-02-27T18:05:12.157Z,3.57
2023-02-27T18:07:39.610Z,3.49
2023-02-27T18:10:08.979Z,3.41
2023-02-27T18:12:37.235Z,3.42
2023-02-27T18:15:05.834Z,3.44
2023-02-27T18:17:33.049Z,3.38
2023-02-27T18:20:00.218Z,3.38
2023-02-27T18:22:27.406Z,3.33
2023-02-27T18:24:56.150Z,3.29
2023-02-27T18:27:22.945Z,3.36
2023-02-27T18:29:50.279Z,3.35
2023-02-27T18:32:18.116Z,3.30
2023-02-27T18:34:47.368Z,3.31
2023-02-27T18:37:14.681Z,3.28
2023-02-27T18:39:42.648Z,3.23
2023-02-27T18:42:09.472Z,3.19
2023-02-27T18:44:38.429Z,3.22
2023-02-27T18:47:05.599Z,3.20
2023-02-27T18:49:32.547Z,3.16
2023-02-27T18:51:59.460Z,3.17
2023-02-27T18:54:26.341Z,3.12
2023-02-27T18:56:54.483Z,3.18
2023-02-27T18:59:21.353Z,3.23
2023-02-27T19:01:48.159Z,3.24
2023-02-27T19:04:16.474Z,3.20
2023-02-27T19:06:43.554Z,3.18
2023-02-27T19:09:16.224Z,3.16
2023-02-27T19:11:48.567Z,3.12
2023-02-27T19:14:16.418Z,3.15
2023-02-27T19:16:49.578Z,3.13
2023-02-27T19:19:18.314Z,3.15
2023-02-27T19:21:47.849Z,3.12
2023-02-27T19:24:18.736Z,3.03
2023-02-27T19:26:45.695Z,3.05
2023-02-27T19:29:15.332Z,3.07
2023-02-27T19:31:44.231Z,3.13
2023-02-27T19:34:14.957Z,3.10
2023-02-27T19:36:41.822Z,3.06
2023-02-27T19:39:10.319Z,3.05
2023-02-27T19:41:37.506Z,3.03
2023-02-27T19:44:04.461Z,3.01
2023-02-27T19:46:34.219Z,3.03
2023-02-27T19:49:05.126Z,2.98
2023-02-27T19:51:32.896Z,2.95
2023-02-27T19:53:59.882Z,2.89
2023-02-27T19:56:28.973Z,2.85
2023-02-27T19:58:56.580Z,2.80
2023-02-27T20:01:38.891Z,2.78
2023-02-27T20:04:08.206Z,2.80
2023-02-27T20:06:45.082Z,2.78
2023-02-27T20:09:17.209Z,2.77
2023-02-27T20:11:50.939Z,2.66
2023-02-27T20:14:17.821Z,2.55
2023-02-27T20:16:45.407Z,2.51
2023-02-27T20:19:16.613Z,2.40
2023-02-27T20:21:44.743Z,2.34
2023-02-27T20:24:12.605Z,2.32
2023-02-27T20:26:43.762Z,2.30
2023-02-27T20:29:18.140Z,2.32
2023-02-27T20:31:49.302Z,2.27
2023-02-27T20:34:22.142Z,2.18
2023-02-27T20:36:50.611Z,2.15
2023-02-27T20:39:18.895Z,2.02
2023-02-27T20:41:46.996Z,1.96
2023-02-27T20:44:14.350Z,1.97
2023-02-27T20:46:43.549Z,1.99
2023-02-27T20:49:15.447Z,1.97
2023-02-27T20:51:43.351Z,1.87
2023-02-27T20:54:16.394Z,1.83
2023-02-27T20:56:44.122Z,1.79
2023-02-27T20:59:16.904Z,1.72
2023-02-27T21:01:51.391Z,1.68
2023-02-27T21:04:24.793Z,1.70
2023-02-27T21:06:52.811Z,1.73
2023-02-27T21:09:19.781Z,1.73
2023-02-27T21:11:49.131Z,1.64
2023-02-27T21:14:16.598Z,1.65
2023-02-27T21:16:43.544Z,1.65
2023-02-27T21:19:10.463Z,1.67
2023-02-27T21:21:38.395Z,1.62
2023-02-27T21:24:06.094Z,1.65
2023-02-27T21:26:38.400Z,1.56
2023-02-27T21:29:11.037Z,1.56
2023-02-27T21:31:41.069Z,1.50
2023-02-27T21:34:12.730Z,1.49
2023-02-27T21:36:43.332Z,1.43
2023-02-27T21:39:22.944Z,1.43
2023-02-27T21:41:50.876Z,1.44
2023-02-27T21:44:24.882Z,1.44
2023-02-27T21:46:53.847Z,1.38
2023-02-27T21:49:28.688Z,1.36
2023-02-27T21:51:56.969Z,1.35
2023-02-27T21:54:23.933Z,1.29
2023-02-27T21:56:52.096Z,1.23
2023-02-27T21:59:20.360Z,1.25
2023-02-27T22:01:48.235Z,1.25
2023-02-27T22:04:18.244Z,1.26
2023-02-27T22:06:45.888Z,1.17
2023-02-27T22:09:13.590Z,1.20
2023-02-27T22:11:40.976Z,1.15
2023-02-27T22:14:09.393Z,1.16
2023-02-27T22:16:39.471Z,1.19
2023-02-27T22:19:09.203Z,1.19
2023-02-27T22:21:38.424Z,1.26
2023-02-27T22:24:07.168Z,1.21
2023-02-27T22:26:35.227Z,1.24
2023-02-27T22:29:03.192Z,1.24
2023-02-27T22:31:34.435Z,1.19
2023-02-27T22:34:18.234Z,1.19
2023-02-27T22:36:48.648Z,1.25
2023-02-27T22:39:15.604Z,1.20
2023-02-27T22:41:42.858Z,1.15
2023-02-27T22:44:17.728Z,1.15
2023-02-27T22:46:48.324Z,1.19
2023-02-27T22:49:22.790Z,1.25
2023-02-27T22:51:51.897Z,1.17
2023-02-27T22:54:21.805Z,1.12
2023-02-27T22:56:57.845Z,1.10
2023-02-27T22:59:25.687Z,1.16
2023-02-27T23:01:53.990Z,1.21
2023-02-27T23:04:22.209Z,1.19
2023-02-27T23:06:52.483Z,1.16
2023-02-27T23:09:24.015Z,1.14
2023-02-27T23:11:51.606Z,1.07
2023-02-27T23:14:19.164Z,1.09
2023-02-27T23:16:46.636Z,1.13
2023-02-27T23:19:17.243Z,1.11
2023-02-27T23:21:44.447Z,1.11
2023-02-27T23:24:19.367Z,0.99
2023-02-27T23:26:49.662Z,0.91
2023-02-27T23:29:20.145Z,0.97
2023-02-27T23:31:47.152Z,0.89
2023-02-27T23:34:14.033Z,0.85
2023-02-27T23:36:41.040Z,0.84
2023-02-27T23:39:08.886Z,0.82
2023-02-27T23:41:35.936Z,0.81
2023-02-27T23:44:03.320Z,0.84
2023-02-27T23:46:30.798Z,0.85
2023-02-27T23:49:03.295Z,0.81
2023-02-27T23:51:31.072Z,0.79
2023-02-27T23:53:59.646Z,0.74
2023-02-27T23:56:30.329Z,0.67
2023-02-27T23:59:04.256Z,0.65
